Main page
METAR-TAF:

METAR-TAF

Airports :

Shenzhen Bao'an International Airport

Shenzhen, China

latitude: 22-33N, longitude: 114-06E, elevation: 18 m

Current weather observation

The report was made 26 minutes ago, at 14:00 UTC
Wind 10 kt from the East/Southeast
Temperature 20°C
Humidity 68%
Pressure 1026 hPa
Visibility 10 km or more
no clouds below 1500 m and no cumulonimbus

METAR: ZGSZ 221400Z 11005MPS CAVOK 20/14 Q1026 NOSIG

Time: 22:26 (14:26 UTC)

Forecast

The report was made 5 hours and 18 minutes ago, at 09:08 UTC
Forecast valid from 22 at 12 UTC to 23 at 12 UTC
Wind 8 kt from the East
Visibility: 6000 m
Few clouds at a height of 4000 ft
Becoming
from 23 at 03 UTC to 23 at 04 UTC
Wind 8 kt from the South/Southwest

TAF: ZGSZ 220908Z 2212/2312 09004MPS 6000 FEW040 TX25/2306Z TN16/2222Z BECMG 2303/2304 20004MPS

Weather observations and forecasts of more than 4000 airports (METAR and TAF reports).

The available stations are represented by yellow and red dots on the map.

Hover mouse over dot to see the name of the station.

Then click to see weather observations and forecasts.

To change the map : click on the green buttons with a black cross to zoom in, on the green button with a dash to zoom out, or on the green arrows for adjacent maps.


METAR-TAF: